sensor_id;sensor_type;location;lat;lon;timestamp;pressure;altitude;pressure_sealevel;temperature;humidity
49529;BME280;35423;37.320;-121.762;2023-02-18T00:02:06;100057.98;;;35.36;4.35
49529;BME280;35423;37.320;-121.762;2023-02-18T00:04:46;100060.07;;;35.19;4.31
49529;BME280;35423;37.320;-121.762;2023-02-18T00:07:07;100060.35;;;35.18;4.35
49529;BME280;35423;37.320;-121.762;2023-02-18T00:09:32;100057.16;;;35.07;4.50
49529;BME280;35423;37.320;-121.762;2023-02-18T00:11:59;100058.54;;;34.79;4.33
49529;BME280;35423;37.320;-121.762;2023-02-18T00:14:26;100060.53;;;34.62;4.61
49529;BME280;35423;37.320;-121.762;2023-02-18T00:16:54;100059.59;;;34.25;4.78
49529;BME280;35423;37.320;-121.762;2023-02-18T00:19:21;100059.10;;;34.08;4.81
49529;BME280;35423;37.320;-121.762;2023-02-18T00:21:53;100055.21;;;34.51;4.52
49529;BME280;35423;37.320;-121.762;2023-02-18T00:24:22;100055.01;;;34.37;4.69
49529;BME280;35423;37.320;-121.762;2023-02-18T00:26:51;100052.15;;;34.12;4.62
49529;BME280;35423;37.320;-121.762;2023-02-18T00:29:19;100053.18;;;34.46;4.40
49529;BME280;35423;37.320;-121.762;2023-02-18T00:31:49;100052.59;;;33.80;4.52
49529;BME280;35423;37.320;-121.762;2023-02-18T00:34:16;100056.16;;;33.92;4.57
49529;BME280;35423;37.320;-121.762;2023-02-18T00:36:42;100052.30;;;33.73;4.50
49529;BME280;35423;37.320;-121.762;2023-02-18T00:39:10;100046.29;;;33.62;4.63
49529;BME280;35423;37.320;-121.762;2023-02-18T00:41:38;100043.42;;;33.40;4.71
49529;BME280;35423;37.320;-121.762;2023-02-18T00:44:05;100038.66;;;32.99;4.84
49529;BME280;35423;37.320;-121.762;2023-02-18T00:46:33;100034.35;;;32.65;4.91
49529;BME280;35423;37.320;-121.762;2023-02-18T00:49:02;100033.88;;;32.19;4.94
49529;BME280;35423;37.320;-121.762;2023-02-18T00:51:32;100036.30;;;32.18;5.08
49529;BME280;35423;37.320;-121.762;2023-02-18T00:53:57;100040.06;;;31.94;5.09
49529;BME280;35423;37.320;-121.762;2023-02-18T00:56:27;100039.17;;;31.76;5.08
49529;BME280;35423;37.320;-121.762;2023-02-18T00:58:50;100040.08;;;31.72;5.23
49529;BME280;35423;37.320;-121.762;2023-02-18T01:01:16;100042.59;;;31.45;5.41
49529;BME280;35423;37.320;-121.762;2023-02-18T01:03:42;100043.80;;;31.33;5.64
49529;BME280;35423;37.320;-121.762;2023-02-18T01:06:11;100043.55;;;30.98;5.77
49529;BME280;35423;37.320;-121.762;2023-02-18T01:08:39;100044.33;;;30.66;5.88
49529;BME280;35423;37.320;-121.762;2023-02-18T01:11:04;100046.96;;;30.81;6.14
49529;BME280;35423;37.320;-121.762;2023-02-18T01:13:34;100050.96;;;30.26;6.37
49529;BME280;35423;37.320;-121.762;2023-02-18T01:16:02;100050.81;;;29.95;6.25
49529;BME280;35423;37.320;-121.762;2023-02-18T01:18:28;100048.85;;;29.84;6.49
49529;BME280;35423;37.320;-121.762;2023-02-18T01:20:54;100052.13;;;29.54;6.45
49529;BME280;35423;37.320;-121.762;2023-02-18T01:23:20;100049.65;;;29.30;6.83
49529;BME280;35423;37.320;-121.762;2023-02-18T01:25:54;100049.30;;;29.03;6.87
49529;BME280;35423;37.320;-121.762;2023-02-18T01:28:20;100051.52;;;28.78;7.09
49529;BME280;35423;37.320;-121.762;2023-02-18T01:30:47;100051.53;;;28.60;7.14
49529;BME280;35423;37.320;-121.762;2023-02-18T01:33:17;100055.54;;;28.40;7.19
49529;BME280;35423;37.320;-121.762;2023-02-18T01:35:55;100053.50;;;28.64;7.42
49529;BME280;35423;37.320;-121.762;2023-02-18T01:38:21;100056.10;;;28.00;7.22
49529;BME280;35423;37.320;-121.762;2023-02-18T01:40:52;100059.59;;;28.26;7.00
49529;BME280;35423;37.320;-121.762;2023-02-18T01:43:16;100058.75;;;27.98;7.05
49529;BME280;35423;37.320;-121.762;2023-02-18T01:45:50;100059.97;;;27.62;6.94
49529;BME280;35423;37.320;-121.762;2023-02-18T01:48:07;100058.57;;;27.35;7.18
49529;BME280;35423;37.320;-121.762;2023-02-18T01:50:31;100061.78;;;26.96;7.31
49529;BME280;35423;37.320;-121.762;2023-02-18T01:52:58;100061.02;;;27.17;7.45
49529;BME280;35423;37.320;-121.762;2023-02-18T01:55:24;100060.10;;;26.82;7.59
49529;BME280;35423;37.320;-121.762;2023-02-18T01:57:53;100062.70;;;26.62;7.71
49529;BME280;35423;37.320;-121.762;2023-02-18T02:00:19;100068.56;;;26.44;7.87
49529;BME280;35423;37.320;-121.762;2023-02-18T02:02:47;100071.41;;;26.45;7.85
49529;BME280;35423;37.320;-121.762;2023-02-18T02:05:12;100070.17;;;26.01;7.70
49529;BME280;35423;37.320;-121.762;2023-02-18T02:07:41;100071.68;;;25.83;7.90
49529;BME280;35423;37.320;-121.762;2023-02-18T02:10:09;100075.53;;;25.76;7.80
49529;BME280;35423;37.320;-121.762;2023-02-18T02:12:42;100074.86;;;25.86;7.66
49529;BME280;35423;37.320;-121.762;2023-02-18T02:15:13;100078.57;;;25.62;7.81
49529;BME280;35423;37.320;-121.762;2023-02-18T02:17:33;100080.39;;;25.69;7.79
49529;BME280;35423;37.320;-121.762;2023-02-18T02:25:02;100094.39;;;25.36;7.16
49529;BME280;35423;37.320;-121.762;2023-02-18T02:27:24;100092.39;;;25.10;7.08
49529;BME280;35423;37.320;-121.762;2023-02-18T02:32:29;100092.46;;;25.06;8.01
49529;BME280;35423;37.320;-121.762;2023-02-18T02:34:52;100091.19;;;25.07;8.16
49529;BME280;35423;37.320;-121.762;2023-02-18T02:37:17;100092.26;;;24.91;8.42
49529;BME280;35423;37.320;-121.762;2023-02-18T02:39:46;100090.60;;;24.74;8.25
49529;BME280;35423;37.320;-121.762;2023-02-18T02:42:12;100089.93;;;24.66;8.16
49529;BME280;35423;37.320;-121.762;2023-02-18T02:44:37;100088.41;;;24.53;7.66
49529;BME280;35423;37.320;-121.762;2023-02-18T02:47:01;100090.68;;;24.68;7.51
49529;BME280;35423;37.320;-121.762;2023-02-18T02:49:32;100087.60;;;24.47;7.30
49529;BME280;35423;37.320;-121.762;2023-02-18T02:51:55;100087.44;;;24.50;7.26
49529;BME280;35423;37.320;-121.762;2023-02-18T02:54:25;100088.31;;;24.60;7.40
49529;BME280;35423;37.320;-121.762;2023-02-18T02:57:00;100090.42;;;24.30;7.30
49529;BME280;35423;37.320;-121.762;2023-02-18T02:59:21;100089.03;;;24.21;7.61
49529;BME280;35423;37.320;-121.762;2023-02-18T03:02:02;100093.37;;;24.23;7.96
49529;BME280;35423;37.320;-121.762;2023-02-18T03:04:30;100097.57;;;23.93;8.07
49529;BME280;35423;37.320;-121.762;2023-02-18T03:09:19;100096.87;;;23.70;8.42
49529;BME280;35423;37.320;-121.762;2023-02-18T03:11:57;100104.29;;;24.30;8.71
49529;BME280;35423;37.320;-121.762;2023-02-18T03:14:24;100103.56;;;23.55;8.74
49529;BME280;35423;37.320;-121.762;2023-02-18T03:16:46;100104.73;;;23.74;8.93
49529;BME280;35423;37.320;-121.762;2023-02-18T03:19:12;100110.34;;;23.60;9.11
49529;BME280;35423;37.320;-121.762;2023-02-18T03:21:41;100115.30;;;23.17;9.21
49529;BME280;35423;37.320;-121.762;2023-02-18T03:24:07;100117.99;;;23.27;9.33
49529;BME280;35423;37.320;-121.762;2023-02-18T03:26:31;100120.86;;;23.16;9.62
49529;BME280;35423;37.320;-121.762;2023-02-18T03:28:58;100126.23;;;23.32;9.80
49529;BME280;35423;37.320;-121.762;2023-02-18T03:31:26;100127.28;;;23.20;9.99
49529;BME280;35423;37.320;-121.762;2023-02-18T03:33:51;100127.73;;;23.14;10.10
49529;BME280;35423;37.320;-121.762;2023-02-18T03:36:17;100129.44;;;23.08;10.27
49529;BME280;35423;37.320;-121.762;2023-02-18T03:38:45;100129.84;;;22.86;10.39
49529;BME280;35423;37.320;-121.762;2023-02-18T03:41:06;100129.52;;;23.00;10.54
49529;BME280;35423;37.320;-121.762;2023-02-18T03:43:33;100130.15;;;22.63;10.70
49529;BME280;35423;37.320;-121.762;2023-02-18T03:46:05;100128.69;;;22.72;10.79
49529;BME280;35423;37.320;-121.762;2023-02-18T03:48:31;100128.98;;;22.63;10.83
49529;BME280;35423;37.320;-121.762;2023-02-18T03:50:58;100127.26;;;22.75;10.87
49529;BME280;35423;37.320;-121.762;2023-02-18T03:53:24;100126.39;;;22.61;10.96
49529;BME280;35423;37.320;-121.762;2023-02-18T03:55:50;100126.39;;;22.48;11.10
49529;BME280;35423;37.320;-121.762;2023-02-18T03:58:16;100133.35;;;22.11;11.20
49529;BME280;35423;37.320;-121.762;2023-02-18T04:00:42;100136.75;;;22.35;11.25
49529;BME280;35423;37.320;-121.762;2023-02-18T04:03:07;100138.78;;;22.27;11.32
49529;BME280;35423;37.320;-121.762;2023-02-18T04:05:32;100135.77;;;21.82;11.52
49529;BME280;35423;37.320;-121.762;2023-02-18T04:08:04;100134.75;;;22.14;11.68
49529;BME280;35423;37.320;-121.762;2023-02-18T04:10:32;100137.87;;;21.82;11.72
49529;BME280;35423;37.320;-121.762;2023-02-18T04:13:03;100141.29;;;21.71;11.79
49529;BME280;35423;37.320;-121.762;2023-02-18T04:15:36;100143.61;;;21.61;11.82
49529;BME280;35423;37.320;-121.762;2023-02-18T04:18:04;100149.37;;;21.57;11.77
49529;BME280;35423;37.320;-121.762;2023-02-18T04:20:37;100155.48;;;21.86;12.02
49529;BME280;35423;37.320;-121.762;2023-02-18T04:23:04;100160.85;;;21.24;12.23
49529;BME280;35423;37.320;-121.762;2023-02-18T04:25:32;100168.03;;;21.31;12.21
49529;BME280;35423;37.320;-121.762;2023-02-18T04:28:03;100172.92;;;21.16;12.37
49529;BME280;35423;37.320;-121.762;2023-02-18T04:30:30;100176.47;;;21.06;12.46
49529;BME280;35423;37.320;-121.762;2023-02-18T04:32:57;100179.38;;;21.01;12.63
49529;BME280;35423;37.320;-121.762;2023-02-18T04:35:24;100183.46;;;21.14;12.67
49529;BME280;35423;37.320;-121.762;2023-02-18T04:37:52;100186.91;;;21.00;12.81
49529;BME280;35423;37.320;-121.762;2023-02-18T04:40:18;100188.52;;;20.81;12.91
49529;BME280;35423;37.320;-121.762;2023-02-18T04:42:44;100190.03;;;20.72;12.92
49529;BME280;35423;37.320;-121.762;2023-02-18T04:45:10;100191.66;;;20.53;13.08
49529;BME280;35423;37.320;-121.762;2023-02-18T04:47:35;100193.23;;;20.60;12.92
49529;BME280;35423;37.320;-121.762;2023-02-18T04:50:12;100190.35;;;20.40;12.92
49529;BME280;35423;37.320;-121.762;2023-02-18T04:52:42;100190.99;;;20.01;12.89
49529;BME280;35423;37.320;-121.762;2023-02-18T04:55:07;100189.43;;;20.20;12.82
49529;BME280;35423;37.320;-121.762;2023-02-18T04:57:37;100187.63;;;19.88;12.87
49529;BME280;35423;37.320;-121.762;2023-02-18T05:00:04;100186.78;;;20.07;12.81
49529;BME280;35423;37.320;-121.762;2023-02-18T05:02:28;100188.90;;;20.00;12.80
49529;BME280;35423;37.320;-121.762;2023-02-18T05:04:56;100190.81;;;19.91;12.86
49529;BME280;35423;37.320;-121.762;2023-02-18T05:07:24;100190.24;;;20.10;12.76
49529;BME280;35423;37.320;-121.762;2023-02-18T05:09:52;100193.93;;;20.10;12.68
49529;BME280;35423;37.320;-121.762;2023-02-18T05:12:19;100192.74;;;20.04;12.72
49529;BME280;35423;37.320;-121.762;2023-02-18T05:14:49;100196.58;;;19.96;12.74
49529;BME280;35423;37.320;-121.762;2023-02-18T05:17:11;100199.69;;;19.88;12.75
49529;BME280;35423;37.320;-121.762;2023-02-18T05:19:37;100200.32;;;19.62;12.76
49529;BME280;35423;37.320;-121.762;2023-02-18T05:22:03;100198.69;;;19.55;12.73
49529;BME280;35423;37.320;-121.762;2023-02-18T05:24:33;100202.70;;;19.65;12.69
49529;BME280;35423;37.320;-121.762;2023-02-18T05:26:57;100205.83;;;19.60;12.68
49529;BME280;35423;37.320;-121.762;2023-02-18T05:29:25;100211.46;;;19.52;12.79
49529;BME280;35423;37.320;-121.762;2023-02-18T05:31:55;100217.48;;;19.50;12.99
49529;BME280;35423;37.320;-121.762;2023-02-18T05:34:22;100215.86;;;19.43;13.15
49529;BME280;35423;37.320;-121.762;2023-02-18T05:36:50;100212.72;;;19.42;13.36
49529;BME280;35423;37.320;-121.762;2023-02-18T05:39:25;100209.45;;;19.72;13.62
49529;BME280;35423;37.320;-121.762;2023-02-18T05:41:56;100212.47;;;19.17;13.66
49529;BME280;35423;37.320;-121.762;2023-02-18T05:44:26;100214.70;;;19.28;13.33
49529;BME280;35423;37.320;-121.762;2023-02-18T05:46:54;100217.80;;;18.87;13.12
49529;BME280;35423;37.320;-121.762;2023-02-18T05:49:22;100218.53;;;19.11;12.94
49529;BME280;35423;37.320;-121.762;2023-02-18T05:51:51;100217.28;;;19.25;12.64
49529;BME280;35423;37.320;-121.762;2023-02-18T05:54:19;100219.71;;;19.11;12.77
49529;BME280;35423;37.320;-121.762;2023-02-18T05:56:49;100221.71;;;18.95;12.89
49529;BME280;35423;37.320;-121.762;2023-02-18T05:59:17;100220.23;;;18.63;12.97
49529;BME280;35423;37.320;-121.762;2023-02-18T06:01:43;100220.25;;;18.74;13.10
49529;BME280;35423;37.320;-121.762;2023-02-18T06:04:09;100221.62;;;18.64;13.52
49529;BME280;35423;37.320;-121.762;2023-02-18T06:06:37;100223.19;;;18.55;13.75
49529;BME280;35423;37.320;-121.762;2023-02-18T06:09:06;100223.96;;;18.41;13.87
49529;BME280;35423;37.320;-121.762;2023-02-18T06:11:33;100226.92;;;18.50;13.94
49529;BME280;35423;37.320;-121.762;2023-02-18T06:13:58;100226.19;;;18.28;14.02
49529;BME280;35423;37.320;-121.762;2023-02-18T06:16:31;100224.07;;;18.12;14.21
49529;BME280;35423;37.320;-121.762;2023-02-18T06:19:02;100223.89;;;18.18;14.21
49529;BME280;35423;37.320;-121.762;2023-02-18T06:21:34;100223.82;;;17.90;14.16
49529;BME280;35423;37.320;-121.762;2023-02-18T06:24:01;100228.49;;;17.87;14.05
49529;BME280;35423;37.320;-121.762;2023-02-18T06:26:26;100231.22;;;18.00;14.18
49529;BME280;35423;37.320;-121.762;2023-02-18T06:28:52;100232.39;;;17.84;14.31
49529;BME280;35423;37.320;-121.762;2023-02-18T06:31:21;100233.63;;;18.03;14.28
49529;BME280;35423;37.320;-121.762;2023-02-18T06:33:51;100234.51;;;17.95;14.36
49529;BME280;35423;37.320;-121.762;2023-02-18T06:36:17;100232.22;;;17.81;14.61
49529;BME280;35423;37.320;-121.762;2023-02-18T06:38:43;100231.93;;;17.64;14.72
49529;BME280;35423;37.320;-121.762;2023-02-18T06:41:21;100233.57;;;17.59;14.54
49529;BME280;35423;37.320;-121.762;2023-02-18T06:43:51;100236.59;;;17.56;14.50
49529;BME280;35423;37.320;-121.762;2023-02-18T06:46:21;100239.80;;;17.49;14.55
49529;BME280;35423;37.320;-121.762;2023-02-18T06:48:48;100240.14;;;17.42;14.75
49529;BME280;35423;37.320;-121.762;2023-02-18T06:51:15;100240.60;;;17.35;14.93
49529;BME280;35423;37.320;-121.762;2023-02-18T06:53:43;100244.81;;;17.51;15.09
49529;BME280;35423;37.320;-121.762;2023-02-18T06:56:13;100246.53;;;17.28;15.11
49529;BME280;35423;37.320;-121.762;2023-02-18T06:58:43;100246.86;;;17.23;15.04
49529;BME280;35423;37.320;-121.762;2023-02-18T07:01:08;100251.95;;;17.12;15.15
49529;BME280;35423;37.320;-121.762;2023-02-18T07:03:40;100254.75;;;17.06;15.22
49529;BME280;35423;37.320;-121.762;2023-02-18T07:06:09;100260.46;;;17.04;15.23
49529;BME280;35423;37.320;-121.762;2023-02-18T07:08:35;100264.01;;;17.03;15.21
49529;BME280;35423;37.320;-121.762;2023-02-18T07:11:00;100269.83;;;17.04;15.31
49529;BME280;35423;37.320;-121.762;2023-02-18T07:13:27;100269.76;;;17.13;15.44
49529;BME280;35423;37.320;-121.762;2023-02-18T07:15:55;100269.04;;;16.89;15.53
49529;BME280;35423;37.320;-121.762;2023-02-18T07:18:20;100272.59;;;17.07;15.59
49529;BME280;35423;37.320;-121.762;2023-02-18T07:20:52;100274.62;;;17.18;15.84
49529;BME280;35423;37.320;-121.762;2023-02-18T07:23:23;100278.04;;;16.86;15.92
49529;BME280;35423;37.320;-121.762;2023-02-18T07:25:48;100279.93;;;16.79;15.87
49529;BME280;35423;37.320;-121.762;2023-02-18T07:28:18;100277.01;;;16.69;15.90
49529;BME280;35423;37.320;-121.762;2023-02-18T07:30:48;100274.45;;;16.34;15.85
49529;BME280;35423;37.320;-121.762;2023-02-18T07:33:16;100270.71;;;16.49;15.72
49529;BME280;35423;37.320;-121.762;2023-02-18T07:35:53;100269.43;;;16.60;15.73
49529;BME280;35423;37.320;-121.762;2023-02-18T07:38:17;100269.54;;;16.30;15.64
49529;BME280;35423;37.320;-121.762;2023-02-18T07:40:53;100272.18;;;16.68;15.42
49529;BME280;35423;37.320;-121.762;2023-02-18T07:43:33;100266.00;;;16.48;15.43
49529;BME280;35423;37.320;-121.762;2023-02-18T07:45:59;100263.38;;;16.19;15.61
49529;BME280;35423;37.320;-121.762;2023-02-18T07:48:27;100266.65;;;16.15;15.61
49529;BME280;35423;37.320;-121.762;2023-02-18T07:50:54;100270.07;;;16.14;15.64
49529;BME280;35423;37.320;-121.762;2023-02-18T07:53:21;100273.62;;;16.10;15.67
49529;BME280;35423;37.320;-121.762;2023-02-18T07:55:49;100272.43;;;16.03;15.69
49529;BME280;35423;37.320;-121.762;2023-02-18T07:58:18;100270.40;;;15.96;15.58
49529;BME280;35423;37.320;-121.762;2023-02-18T08:00:42;100268.93;;;15.80;15.56
49529;BME280;35423;37.320;-121.762;2023-02-18T08:03:10;100267.70;;;16.23;15.53
49529;BME280;35423;37.320;-121.762;2023-02-18T08:05:36;100267.47;;;15.87;15.59
49529;BME280;35423;37.320;-121.762;2023-02-18T08:08:02;100268.37;;;15.50;15.75
49529;BME280;35423;37.320;-121.762;2023-02-18T08:10:28;100263.42;;;15.70;15.93
49529;BME280;35423;37.320;-121.762;2023-02-18T08:12:54;100262.61;;;15.91;16.02
49529;BME280;35423;37.320;-121.762;2023-02-18T08:15:26;100261.42;;;15.43;15.92
49529;BME280;35423;37.320;-121.762;2023-02-18T08:17:52;100258.04;;;15.71;15.61
49529;BME280;35423;37.320;-121.762;2023-02-18T08:20:19;100257.96;;;15.66;15.50
49529;BME280;35423;37.320;-121.762;2023-02-18T08:22:45;100258.69;;;15.79;15.56
49529;BME280;35423;37.320;-121.762;2023-02-18T08:25:12;100260.96;;;15.50;15.56
49529;BME280;35423;37.320;-121.762;2023-02-18T08:27:38;100263.55;;;15.73;15.47
49529;BME280;35423;37.320;-121.762;2023-02-18T08:30:05;100263.89;;;15.54;14.83
49529;BME280;35423;37.320;-121.762;2023-02-18T08:32:31;100262.14;;;15.70;14.78
49529;BME280;35423;37.320;-121.762;2023-02-18T08:34:58;100263.34;;;15.39;14.83
49529;BME280;35423;37.320;-121.762;2023-02-18T08:37:27;100264.21;;;15.33;15.00
49529;BME280;35423;37.320;-121.762;2023-02-18T08:39:51;100262.73;;;15.25;15.15
49529;BME280;35423;37.320;-121.762;2023-02-18T08:42:16;100269.51;;;15.20;15.30
49529;BME280;35423;37.320;-121.762;2023-02-18T08:44:44;100270.80;;;15.36;15.33
49529;BME280;35423;37.320;-121.762;2023-02-18T08:47:10;100271.35;;;15.25;15.43
49529;BME280;35423;37.320;-121.762;2023-02-18T08:49:34;100273.54;;;15.25;15.35
49529;BME280;35423;37.320;-121.762;2023-02-18T08:52:04;100269.49;;;15.25;15.19
49529;BME280;35423;37.320;-121.762;2023-02-18T08:54:29;100265.56;;;15.18;15.17
49529;BME280;35423;37.320;-121.762;2023-02-18T08:56:57;100264.23;;;15.00;15.21
49529;BME280;35423;37.320;-121.762;2023-02-18T08:59:23;100263.89;;;15.19;15.21
49529;BME280;35423;37.320;-121.762;2023-02-18T09:01:49;100261.98;;;15.12;15.26
49529;BME280;35423;37.320;-121.762;2023-02-18T09:04:14;100263.04;;;15.12;15.22
49529;BME280;35423;37.320;-121.762;2023-02-18T09:06:45;100268.01;;;15.30;15.36
49529;BME280;35423;37.320;-121.762;2023-02-18T09:09:17;100269.72;;;14.93;15.58
49529;BME280;35423;37.320;-121.762;2023-02-18T09:11:44;100270.07;;;14.74;15.75
49529;BME280;35423;37.320;-121.762;2023-02-18T09:14:12;100267.77;;;14.99;15.98
49529;BME280;35423;37.320;-121.762;2023-02-18T09:16:42;100266.58;;;15.03;15.99
49529;BME280;35423;37.320;-121.762;2023-02-18T09:19:11;100271.12;;;14.77;15.92
49529;BME280;35423;37.320;-121.762;2023-02-18T09:21:41;100266.63;;;14.76;16.00
49529;BME280;35423;37.320;-121.762;2023-02-18T09:24:07;100261.91;;;14.67;16.28
49529;BME280;35423;37.320;-121.762;2023-02-18T09:26:35;100255.15;;;14.81;16.28
49529;BME280;35423;37.320;-121.762;2023-02-18T09:29:02;100254.01;;;14.64;16.35
49529;BME280;35423;37.320;-121.762;2023-02-18T09:31:29;100256.16;;;14.77;16.24
49529;BME280;35423;37.320;-121.762;2023-02-18T09:33:56;100256.16;;;14.20;16.19
49529;BME280;35423;37.320;-121.762;2023-02-18T09:36:22;100252.86;;;14.13;16.25
49529;BME280;35423;37.320;-121.762;2023-02-18T09:38:48;100257.90;;;14.51;16.22
49529;BME280;35423;37.320;-121.762;2023-02-18T09:41:21;100260.40;;;14.51;16.18
49529;BME280;35423;37.320;-121.762;2023-02-18T09:43:42;100262.65;;;14.45;16.28
49529;BME280;35423;37.320;-121.762;2023-02-18T09:46:14;100262.61;;;14.43;16.68
49529;BME280;35423;37.320;-121.762;2023-02-18T09:48:36;100264.59;;;14.44;17.13
49529;BME280;35423;37.320;-121.762;2023-02-18T09:51:00;100264.55;;;14.40;17.28
49529;BME280;35423;37.320;-121.762;2023-02-18T09:53:25;100265.01;;;14.17;17.26
49529;BME280;35423;37.320;-121.762;2023-02-18T09:55:54;100264.11;;;14.34;17.38
49529;BME280;35423;37.320;-121.762;2023-02-18T09:58:25;100260.54;;;14.30;17.53
49529;BME280;35423;37.320;-121.762;2023-02-18T10:00:51;100257.20;;;14.22;17.67
49529;BME280;35423;37.320;-121.762;2023-02-18T10:03:24;100255.88;;;14.15;17.66
49529;BME280;35423;37.320;-121.762;2023-02-18T10:05:56;100255.13;;;14.11;17.70
49529;BME280;35423;37.320;-121.762;2023-02-18T10:08:20;100255.29;;;14.08;17.58
49529;BME280;35423;37.320;-121.762;2023-02-18T10:10:47;100256.04;;;14.06;17.42
49529;BME280;35423;37.320;-121.762;2023-02-18T10:13:15;100257.97;;;14.02;17.35
49529;BME280;35423;37.320;-121.762;2023-02-18T10:15:41;100255.85;;;13.98;17.40
49529;BME280;35423;37.320;-121.762;2023-02-18T10:18:18;100256.78;;;13.96;17.61
49529;BME280;35423;37.320;-121.762;2023-02-18T10:20:34;100259.73;;;13.89;17.85
49529;BME280;35423;37.320;-121.762;2023-02-18T10:23:03;100265.59;;;13.61;18.10
49529;BME280;35423;37.320;-121.762;2023-02-18T10:25:31;100265.24;;;13.76;18.34
49529;BME280;35423;37.320;-121.762;2023-02-18T10:27:57;100262.70;;;13.99;18.58
49529;BME280;35423;37.320;-121.762;2023-02-18T10:30:26;100253.93;;;13.72;18.54
49529;BME280;35423;37.320;-121.762;2023-02-18T10:32:54;100248.82;;;13.67;18.41
49529;BME280;35423;37.320;-121.762;2023-02-18T10:35:21;100249.83;;;13.80;18.48
49529;BME280;35423;37.320;-121.762;2023-02-18T10:37:51;100252.44;;;13.49;18.69
49529;BME280;35423;37.320;-121.762;2023-02-18T10:40:12;100250.81;;;13.42;19.01
49529;BME280;35423;37.320;-121.762;2023-02-18T10:42:44;100251.66;;;13.61;19.30
49529;BME280;35423;37.320;-121.762;2023-02-18T10:45:12;100253.05;;;13.86;19.58
49529;BME280;35423;37.320;-121.762;2023-02-18T10:47:37;100248.81;;;13.34;19.80
49529;BME280;35423;37.320;-121.762;2023-02-18T10:50:07;100246.67;;;13.35;20.04
49529;BME280;35423;37.320;-121.762;2023-02-18T10:52:33;100243.01;;;13.55;20.05
49529;BME280;35423;37.320;-121.762;2023-02-18T10:54:59;100239.67;;;13.27;20.07
49529;BME280;35423;37.320;-121.762;2023-02-18T10:57:22;100238.05;;;13.74;19.93
49529;BME280;35423;37.320;-121.762;2023-02-18T10:59:55;100232.80;;;13.16;19.71
49529;BME280;35423;37.320;-121.762;2023-02-18T11:02:16;100228.60;;;13.31;19.31
49529;BME280;35423;37.320;-121.762;2023-02-18T11:04:39;100224.96;;;13.27;19.04
49529;BME280;35423;37.320;-121.762;2023-02-18T11:07:06;100222.39;;;13.25;19.03
49529;BME280;35423;37.320;-121.762;2023-02-18T11:09:38;100218.39;;;13.25;19.19
49529;BME280;35423;37.320;-121.762;2023-02-18T11:12:02;100218.38;;;13.21;19.12
49529;BME280;35423;37.320;-121.762;2023-02-18T11:17:07;100208.61;;;13.43;18.70
49529;BME280;35423;37.320;-121.762;2023-02-18T11:19:31;100202.64;;;13.15;18.76
49529;BME280;35423;37.320;-121.762;2023-02-18T11:24:22;100200.50;;;13.46;18.94
49529;BME280;35423;37.320;-121.762;2023-02-18T11:26:48;100198.13;;;13.47;18.90
49529;BME280;35423;37.320;-121.762;2023-02-18T11:29:24;100201.40;;;13.48;18.73
49529;BME280;35423;37.320;-121.762;2023-02-18T11:31:54;100201.35;;;13.02;18.56
49529;BME280;35423;37.320;-121.762;2023-02-18T11:34:27;100200.13;;;13.23;18.55
49529;BME280;35423;37.320;-121.762;2023-02-18T11:36:49;100195.65;;;13.39;18.50
49529;BME280;35423;37.320;-121.762;2023-02-18T11:39:20;100188.71;;;13.01;18.50
49529;BME280;35423;37.320;-121.762;2023-02-18T11:41:45;100185.45;;;13.25;18.54
49529;BME280;35423;37.320;-121.762;2023-02-18T11:44:18;100179.81;;;12.97;18.51
49529;BME280;35423;37.320;-121.762;2023-02-18T11:46:35;100176.74;;;13.21;18.43
49529;BME280;35423;37.320;-121.762;2023-02-18T11:49:10;100176.36;;;13.02;18.08
49529;BME280;35423;37.320;-121.762;2023-02-18T11:51:27;100177.55;;;13.01;18.08
49529;BME280;35423;37.320;-121.762;2023-02-18T11:53:56;100177.79;;;13.31;18.12
49529;BME280;35423;37.320;-121.762;2023-02-18T11:56:18;100173.10;;;13.00;18.24
49529;BME280;35423;37.320;-121.762;2023-02-18T11:58:47;100169.52;;;13.22;18.54
49529;BME280;35423;37.320;-121.762;2023-02-18T12:01:17;100170.13;;;13.13;18.64
49529;BME280;35423;37.320;-121.762;2023-02-18T12:03:43;100171.23;;;13.12;18.60
49529;BME280;35423;37.320;-121.762;2023-02-18T12:06:10;100170.25;;;12.88;18.39
49529;BME280;35423;37.320;-121.762;2023-02-18T12:08:31;100166.84;;;13.13;18.42
49529;BME280;35423;37.320;-121.762;2023-02-18T12:10:59;100164.09;;;12.88;18.43
49529;BME280;35423;37.320;-121.762;2023-02-18T12:13:24;100160.60;;;13.18;18.20
49529;BME280;35423;37.320;-121.762;2023-02-18T12:15:55;100158.29;;;13.16;18.12
49529;BME280;35423;37.320;-121.762;2023-02-18T12:18:24;100156.55;;;13.14;18.01
49529;BME280;35423;37.320;-121.762;2023-02-18T12:20:50;100159.89;;;13.14;17.96
49529;BME280;35423;37.320;-121.762;2023-02-18T12:23:11;100163.87;;;13.08;17.89
49529;BME280;35423;37.320;-121.762;2023-02-18T12:25:42;100167.02;;;13.05;18.06
49529;BME280;35423;37.320;-121.762;2023-02-18T12:28:11;100169.82;;;13.02;18.15
49529;BME280;35423;37.320;-121.762;2023-02-18T12:30:37;100171.57;;;13.22;18.19
49529;BME280;35423;37.320;-121.762;2023-02-18T12:33:01;100169.33;;;12.98;18.15
49529;BME280;35423;37.320;-121.762;2023-02-18T12:35:37;100165.48;;;12.97;18.15
49529;BME280;35423;37.320;-121.762;2023-02-18T12:38:00;100162.06;;;12.65;18.29
49529;BME280;35423;37.320;-121.762;2023-02-18T12:40:22;100163.28;;;12.91;18.16